createdAt,value
2018-01-05T00:02:24.723Z,1.87
2018-01-05T00:04:51.451Z,1.40
2018-01-05T00:07:18.194Z,1.67
2018-01-05T00:09:44.948Z,2.70
2018-01-05T00:12:11.691Z,2.23
2018-01-05T00:14:38.407Z,1.50
2018-01-05T00:17:05.128Z,2.03
2018-01-05T00:19:31.841Z,2.03
2018-01-05T00:21:58.576Z,2.10
2018-01-05T00:24:25.321Z,1.67
2018-01-05T00:26:52.137Z,1.50
2018-01-05T00:29:18.884Z,2.20
2018-01-05T00:31:45.634Z,1.77
2018-01-05T00:34:12.368Z,1.70
2018-01-05T00:36:39.118Z,2.03
2018-01-05T00:39:05.861Z,2.10
2018-01-05T00:41:32.602Z,3.40
2018-01-05T00:43:59.348Z,2.70
2018-01-05T00:46:26.061Z,2.57
2018-01-05T00:48:52.792Z,2.30
2018-01-05T00:51:19.539Z,2.17
2018-01-05T00:53:46.247Z,2.00
2018-01-05T00:56:13.018Z,2.00
2018-01-05T00:58:39.721Z,2.53
2018-01-05T01:01:06.443Z,1.70
2018-01-05T01:03:33.166Z,2.20
2018-01-05T01:05:59.903Z,3.13
2018-01-05T01:08:26.638Z,1.93
2018-01-05T01:10:53.399Z,2.70
2018-01-05T01:13:20.247Z,2.63
2018-01-05T01:15:46.962Z,2.50
2018-01-05T01:18:13.686Z,2.10
2018-01-05T01:20:40.413Z,1.80
2018-01-05T01:23:07.137Z,2.00
2018-01-05T01:25:33.851Z,3.10
2018-01-05T01:28:00.582Z,1.47
2018-01-05T01:30:27.306Z,1.83
2018-01-05T01:32:54.012Z,2.10
2018-01-05T01:35:20.746Z,1.77
2018-01-05T01:37:47.461Z,1.90
2018-01-05T01:40:14.166Z,1.87
2018-01-05T01:42:40.908Z,2.57
2018-01-05T01:45:07.629Z,2.03
2018-01-05T01:47:34.460Z,2.67
2018-01-05T01:50:01.186Z,1.63
2018-01-05T01:52:27.882Z,1.43
2018-01-05T01:54:54.631Z,2.00
2018-01-05T01:57:21.352Z,1.83
2018-01-05T01:59:48.083Z,1.93
2018-01-05T02:02:14.816Z,1.30
2018-01-05T02:04:41.538Z,2.37
2018-01-05T02:07:08.257Z,2.00
2018-01-05T02:09:34.992Z,2.23
2018-01-05T02:12:01.698Z,2.00
2018-01-05T02:14:28.422Z,1.23
2018-01-05T02:16:55.143Z,2.73
2018-01-05T02:19:21.866Z,1.97
2018-01-05T02:21:48.591Z,1.80
2018-01-05T02:24:15.312Z,2.30
2018-01-05T02:26:42.038Z,1.60
2018-01-05T02:29:08.833Z,2.63
2018-01-05T02:31:35.542Z,2.30
2018-01-05T02:34:02.254Z,1.80
2018-01-05T02:36:28.962Z,2.20
2018-01-05T02:38:55.681Z,2.00
2018-01-05T02:41:24.001Z,1.40
2018-01-05T02:43:50.713Z,1.83
2018-01-05T02:46:18.046Z,1.80
2018-01-05T02:48:44.768Z,1.63
2018-01-05T02:51:11.546Z,1.93
2018-01-05T02:53:38.294Z,1.23
2018-01-05T02:56:05.016Z,3.87
2018-01-05T02:58:31.767Z,2.00
2018-01-05T03:00:58.512Z,2.23
2018-01-05T03:03:25.219Z,2.00
2018-01-05T03:05:51.944Z,2.40
2018-01-05T03:08:18.664Z,2.30
2018-01-05T03:10:45.504Z,2.90
2018-01-05T03:13:12.257Z,3.10
2018-01-05T03:15:38.991Z,2.00
2018-01-05T03:18:05.739Z,2.03
2018-01-05T03:20:32.466Z,2.80
2018-01-05T03:22:59.206Z,2.67
2018-01-05T03:25:25.941Z,2.70
2018-01-05T03:27:52.653Z,2.30
2018-01-05T03:30:19.380Z,1.73
2018-01-05T03:32:46.127Z,2.80
2018-01-05T03:35:12.988Z,1.83
2018-01-05T03:37:39.727Z,2.10
2018-01-05T03:40:06.459Z,1.83
2018-01-05T03:42:33.173Z,1.70
2018-01-05T03:44:59.900Z,1.80
2018-01-05T03:47:26.602Z,2.07
2018-01-05T03:49:53.299Z,1.83
2018-01-05T03:52:20.037Z,2.57
2018-01-05T03:54:46.764Z,2.07
2018-01-05T03:57:13.476Z,2.20
2018-01-05T03:59:40.198Z,2.10
2018-01-05T04:02:07.004Z,1.80
2018-01-05T04:04:33.723Z,2.00
2018-01-05T04:07:00.447Z,2.27
2018-01-05T04:09:28.288Z,1.70
2018-01-05T04:11:58.224Z,1.90
2018-01-05T04:14:25.019Z,1.40
2018-01-05T04:16:51.732Z,1.60
2018-01-05T04:19:18.428Z,1.57
2018-01-05T04:21:45.158Z,2.00
2018-01-05T04:24:11.885Z,1.77
2018-01-05T04:26:38.629Z,1.60
2018-01-05T04:29:05.338Z,1.07
2018-01-05T04:31:32.038Z,1.43
2018-01-05T04:33:58.741Z,1.57
2018-01-05T04:36:25.572Z,1.67
2018-01-05T04:38:52.296Z,1.20
2018-01-05T04:41:19.038Z,0.80
2018-01-05T04:43:45.759Z,1.30
2018-01-05T04:46:12.487Z,1.17
2018-01-05T04:48:39.269Z,1.20
2018-01-05T04:51:05.982Z,1.20
2018-01-05T04:53:32.697Z,1.27
2018-01-05T04:55:59.393Z,1.10
2018-01-05T04:58:26.124Z,1.20
2018-01-05T05:00:52.868Z,1.60
2018-01-05T05:03:19.578Z,1.50
2018-01-05T05:05:46.322Z,1.20
2018-01-05T05:08:13.188Z,1.30
2018-01-05T05:10:39.930Z,1.20
2018-01-05T05:13:06.630Z,1.10
2018-01-05T05:15:33.352Z,1.70
2018-01-05T05:18:00.047Z,1.50
2018-01-05T05:20:26.788Z,1.27
2018-01-05T05:22:53.502Z,1.23
2018-01-05T05:25:20.199Z,1.10
2018-01-05T05:27:46.896Z,1.00
2018-01-05T05:30:13.656Z,2.43
2018-01-05T05:32:40.437Z,1.67
2018-01-05T05:35:07.184Z,1.73
2018-01-05T05:37:33.899Z,1.13
2018-01-05T05:40:00.608Z,1.40
2018-01-05T05:42:27.351Z,1.27
2018-01-05T05:44:54.052Z,1.20
2018-01-05T05:47:20.771Z,1.10
2018-01-05T05:49:47.513Z,0.93
2018-01-05T05:52:14.268Z,0.90
2018-01-05T05:54:40.978Z,1.07
2018-01-05T05:57:07.682Z,1.17
2018-01-05T05:59:34.523Z,1.10
2018-01-05T06:02:01.363Z,1.10
2018-01-05T06:04:28.108Z,0.93
2018-01-05T06:06:54.814Z,1.27
2018-01-05T06:09:21.525Z,1.10
2018-01-05T06:11:48.224Z,1.10
2018-01-05T06:14:15.076Z,1.73
2018-01-05T06:16:41.809Z,1.10
2018-01-05T06:19:08.529Z,1.27
2018-01-05T06:21:35.262Z,2.00
2018-01-05T06:24:02.012Z,1.03
2018-01-05T06:26:28.749Z,1.67
2018-01-05T06:28:55.443Z,0.90
2018-01-05T06:31:22.189Z,1.10
2018-01-05T06:33:48.927Z,1.23
2018-01-05T06:36:15.638Z,1.57
2018-01-05T06:38:42.356Z,0.90
2018-01-05T06:41:09.077Z,1.47
2018-01-05T06:43:35.780Z,1.20
2018-01-05T06:46:02.503Z,0.77
2018-01-05T06:48:29.244Z,1.40
2018-01-05T06:50:55.997Z,1.00
2018-01-05T06:53:22.708Z,1.30
2018-01-05T06:55:49.434Z,0.97
2018-01-05T06:58:16.148Z,1.23
2018-01-05T07:00:42.859Z,0.90
2018-01-05T07:03:09.619Z,1.13
2018-01-05T07:05:36.337Z,5.80
2018-01-05T07:08:03.033Z,1.23
2018-01-05T07:10:29.748Z,1.20
2018-01-05T07:12:56.474Z,1.43
2018-01-05T07:15:23.193Z,1.37
2018-01-05T07:17:49.912Z,1.30
2018-01-05T07:20:16.613Z,0.90
2018-01-05T07:22:43.329Z,1.43
2018-01-05T07:25:10.048Z,1.17
2018-01-05T07:27:36.763Z,1.60
2018-01-05T07:30:03.473Z,2.07
2018-01-05T07:32:30.183Z,1.03
2018-01-05T07:34:56.894Z,1.30
2018-01-05T07:37:23.624Z,1.00
2018-01-05T07:39:50.613Z,1.93
2018-01-05T07:42:17.330Z,2.20
2018-01-05T07:44:44.025Z,1.20
2018-01-05T07:47:10.740Z,1.30
2018-01-05T07:49:37.467Z,0.90
2018-01-05T07:52:04.376Z,1.10
2018-01-05T07:54:31.107Z,0.90
2018-01-05T07:56:57.822Z,1.20
2018-01-05T07:59:24.542Z,1.13
2018-01-05T08:01:51.280Z,1.10
2018-01-05T08:04:18.017Z,1.77
2018-01-05T08:06:44.720Z,1.10
2018-01-05T08:09:11.465Z,1.10
2018-01-05T08:11:38.173Z,1.00
2018-01-05T08:14:04.898Z,0.97
2018-01-05T08:16:31.639Z,1.30
2018-01-05T08:18:58.360Z,1.03
2018-01-05T08:21:25.078Z,0.93
2018-01-05T08:23:51.795Z,0.80
2018-01-05T08:26:18.531Z,1.70
2018-01-05T08:28:45.264Z,1.17
2018-01-05T08:31:11.998Z,1.57
2018-01-05T08:33:38.690Z,1.20
2018-01-05T08:36:05.398Z,0.93
2018-01-05T08:38:32.124Z,1.03
2018-01-05T08:40:58.835Z,1.20
2018-01-05T08:43:25.554Z,1.07
2018-01-05T08:45:52.275Z,1.13
2018-01-05T08:48:18.997Z,1.10
2018-01-05T08:50:45.738Z,1.00
2018-01-05T08:53:12.454Z,1.10
2018-01-05T08:55:39.296Z,1.17
2018-01-05T08:58:06.008Z,1.10
2018-01-05T09:00:32.776Z,0.67
2018-01-05T09:02:59.499Z,0.90
2018-01-05T09:05:26.218Z,3.10
2018-01-05T09:07:52.941Z,0.87
2018-01-05T09:10:19.679Z,0.80
2018-01-05T09:12:46.495Z,0.70
2018-01-05T09:15:13.218Z,1.17
2018-01-05T09:17:39.944Z,0.80
2018-01-05T09:20:06.673Z,0.87
2018-01-05T09:22:33.381Z,0.73
2018-01-05T09:25:00.105Z,0.87
2018-01-05T09:27:26.814Z,0.90
2018-01-05T09:29:53.554Z,0.70
2018-01-05T09:32:20.275Z,0.80
2018-01-05T09:34:46.979Z,1.10
2018-01-05T09:37:13.713Z,0.90
2018-01-05T09:39:40.430Z,0.50
2018-01-05T09:42:07.158Z,0.90
2018-01-05T09:44:33.895Z,0.70
2018-01-05T09:47:00.752Z,0.63
2018-01-05T09:49:27.583Z,1.20
2018-01-05T09:51:54.304Z,0.90
2018-01-05T09:54:21.029Z,1.10
2018-01-05T09:56:47.768Z,1.97
2018-01-05T09:59:14.481Z,0.73
2018-01-05T10:01:41.194Z,1.00
2018-01-05T10:04:07.937Z,1.00
2018-01-05T10:06:34.705Z,0.97
2018-01-05T10:09:01.495Z,0.60
2018-01-05T10:11:28.243Z,0.80
2018-01-05T10:13:54.960Z,0.87
2018-01-05T10:16:21.680Z,0.67
2018-01-05T10:18:48.388Z,0.83
2018-01-05T10:21:15.099Z,0.60
2018-01-05T10:23:41.948Z,1.40
2018-01-05T10:26:08.681Z,0.67
2018-01-05T10:28:35.386Z,1.00
2018-01-05T10:31:02.163Z,6.50
2018-01-05T10:33:28.870Z,1.20
2018-01-05T10:35:55.594Z,0.70
2018-01-05T10:38:22.319Z,0.97
2018-01-05T10:40:49.026Z,0.90
2018-01-05T10:43:15.770Z,0.90
2018-01-05T10:45:42.496Z,0.67
2018-01-05T10:48:09.231Z,0.83
2018-01-05T10:50:35.939Z,0.70
2018-01-05T10:53:02.663Z,0.97
2018-01-05T10:55:29.378Z,0.77
2018-01-05T10:57:56.107Z,0.90
2018-01-05T11:00:23.045Z,1.13
2018-01-05T11:02:49.769Z,3.40
2018-01-05T11:05:16.476Z,2.50
2018-01-05T11:07:43.210Z,1.50
2018-01-05T11:10:09.930Z,1.17
2018-01-05T11:12:36.680Z,1.00
2018-01-05T11:15:03.411Z,0.80
2018-01-05T11:17:30.139Z,0.80
2018-01-05T11:19:56.855Z,0.93
2018-01-05T11:22:23.572Z,1.10
2018-01-05T11:24:50.281Z,0.60
2018-01-05T11:27:16.996Z,0.70
2018-01-05T11:29:43.748Z,1.20
2018-01-05T11:32:10.468Z,1.93
2018-01-05T11:34:37.185Z,0.90
2018-01-05T11:37:03.912Z,0.97
2018-01-05T11:39:30.636Z,0.93
2018-01-05T11:41:57.340Z,0.70
2018-01-05T11:44:24.065Z,1.10
2018-01-05T11:46:50.776Z,1.00
2018-01-05T11:49:17.500Z,1.10
2018-01-05T11:51:44.229Z,1.00
2018-01-05T11:54:10.948Z,1.10
2018-01-05T11:56:37.675Z,7.20
2018-01-05T11:59:04.420Z,1.90
2018-01-05T12:01:31.138Z,1.37
2018-01-05T12:03:57.884Z,0.70
2018-01-05T12:06:24.612Z,0.80
2018-01-05T12:08:51.329Z,0.90
2018-01-05T12:11:18.063Z,0.90
2018-01-05T12:13:44.773Z,12.13
2018-01-05T12:16:11.496Z,2.70
2018-01-05T12:18:38.220Z,1.50
2018-01-05T12:21:04.958Z,0.97
2018-01-05T12:23:31.699Z,5.40
2018-01-05T12:25:58.539Z,2.73
2018-01-05T12:28:25.254Z,5.20
2018-01-05T12:30:51.966Z,0.90
2018-01-05T12:33:18.693Z,1.00
2018-01-05T12:35:45.463Z,0.90
2018-01-05T12:38:12.180Z,2.53
2018-01-05T12:40:38.983Z,2.50
2018-01-05T12:43:05.711Z,1.67
2018-01-05T12:45:32.451Z,2.27
2018-01-05T12:47:59.183Z,1.40
2018-01-05T12:50:25.913Z,1.60
2018-01-05T12:52:52.620Z,1.40
2018-01-05T12:55:19.371Z,1.20
2018-01-05T12:57:46.088Z,1.37
2018-01-05T13:00:12.825Z,1.10
2018-01-05T13:02:39.635Z,1.03
2018-01-05T13:05:06.344Z,1.10
2018-01-05T13:07:33.086Z,1.10
2018-01-05T13:09:59.811Z,0.93
2018-01-05T13:12:26.515Z,2.63
2018-01-05T13:14:53.280Z,1.10
2018-01-05T13:17:20.005Z,1.07
2018-01-05T13:19:46.744Z,1.20
2018-01-05T13:22:13.466Z,1.10
2018-01-05T13:24:47.684Z,1.10
2018-01-05T13:27:14.425Z,1.07
2018-01-05T13:29:41.179Z,1.20
2018-01-05T13:32:07.909Z,0.93
2018-01-05T13:34:34.610Z,1.90
2018-01-05T13:37:01.439Z,1.10
2018-01-05T13:39:28.158Z,1.00
2018-01-05T13:41:54.881Z,1.03
2018-01-05T13:44:21.605Z,1.27
2018-01-05T13:46:48.327Z,1.33
2018-01-05T13:49:15.060Z,1.40
2018-01-05T13:51:41.813Z,2.53
2018-01-05T13:54:08.535Z,2.30
2018-01-05T13:56:35.280Z,2.27
2018-01-05T13:59:02.014Z,1.30
2018-01-05T14:01:28.738Z,1.50
2018-01-05T14:03:55.444Z,1.17
2018-01-05T14:06:22.171Z,1.50
2018-01-05T14:08:48.900Z,1.47
2018-01-05T14:11:15.624Z,1.30
2018-01-05T14:13:42.349Z,1.20
2018-01-05T14:16:09.096Z,1.40
2018-01-05T14:18:35.844Z,1.43
2018-01-05T14:21:02.574Z,1.50
2018-01-05T14:23:29.281Z,1.50
2018-01-05T14:25:56.009Z,1.87
2018-01-05T14:28:22.812Z,13.93
2018-01-05T14:30:49.542Z,5.83
2018-01-05T14:33:16.265Z,2.13
2018-01-05T14:35:43.074Z,1.90
2018-01-05T14:38:09.780Z,1.50
2018-01-05T14:40:36.577Z,1.50
2018-01-05T14:43:03.265Z,2.23
2018-01-05T14:45:30.109Z,1.73
2018-01-05T14:47:56.875Z,1.43
2018-01-05T14:50:23.599Z,2.00
2018-01-05T14:52:50.352Z,2.00
2018-01-05T14:55:17.155Z,1.47
2018-01-05T14:57:43.889Z,1.30
2018-01-05T15:00:10.620Z,1.30
2018-01-05T15:02:37.329Z,1.27
2018-01-05T15:05:04.040Z,2.27
2018-01-05T15:07:30.851Z,1.23
2018-01-05T15:09:57.585Z,1.30
2018-01-05T15:12:24.356Z,1.20
2018-01-05T15:14:51.092Z,1.07
2018-01-05T15:17:17.806Z,1.30
2018-01-05T15:19:44.525Z,1.53
2018-01-05T15:22:11.257Z,1.00
2018-01-05T15:24:37.960Z,1.70
2018-01-05T15:27:04.721Z,2.57
2018-01-05T15:29:31.484Z,2.87
2018-01-05T15:31:58.365Z,2.27
2018-01-05T15:34:25.090Z,2.33
2018-01-05T15:36:51.821Z,2.10
2018-01-05T15:39:18.694Z,2.20
2018-01-05T15:41:45.415Z,6.67
2018-01-05T15:44:12.149Z,8.83
2018-01-05T15:46:38.890Z,7.27
2018-01-05T15:49:05.655Z,9.60
2018-01-05T15:51:32.389Z,5.00
2018-01-05T15:53:59.110Z,6.03
2018-01-05T15:56:25.877Z,4.97
2018-01-05T15:58:52.611Z,5.10
2018-01-05T16:01:19.364Z,7.70
2018-01-05T16:03:46.119Z,7.97
2018-01-05T16:06:35.954Z,5.00
2018-01-05T16:09:02.692Z,2.93
2018-01-05T16:11:29.416Z,5.43
2018-01-05T16:13:56.137Z,4.40
2018-01-05T16:16:22.849Z,4.60
2018-01-05T16:18:49.669Z,3.10
2018-01-05T16:21:16.391Z,3.73
2018-01-05T16:23:43.247Z,5.40
2018-01-05T16:26:09.972Z,2.90
2018-01-05T16:28:36.732Z,2.87
2018-01-05T16:31:03.457Z,2.73
2018-01-05T16:33:30.204Z,4.03
2018-01-05T16:35:56.921Z,4.57
2018-01-05T16:38:23.650Z,4.77
2018-01-05T16:40:50.375Z,6.10
2018-01-05T16:43:17.119Z,3.17
2018-01-05T16:45:43.871Z,2.13
2018-01-05T16:48:10.592Z,1.50
2018-01-05T16:50:37.342Z,1.20
2018-01-05T16:53:04.096Z,1.20
2018-01-05T16:55:30.807Z,1.53
2018-01-05T16:57:57.611Z,1.07
2018-01-05T17:00:24.457Z,6.03
2018-01-05T17:02:51.181Z,4.40
2018-01-05T17:05:17.917Z,4.30
2018-01-05T17:07:44.785Z,1.30
2018-01-05T17:10:11.507Z,0.90
2018-01-05T17:12:38.245Z,0.83
2018-01-05T17:15:04.960Z,1.37
2018-01-05T17:17:31.686Z,2.60
2018-01-05T17:19:58.436Z,2.83
2018-01-05T17:22:25.179Z,4.00
2018-01-05T17:24:51.906Z,1.47
2018-01-05T17:27:18.666Z,1.60
2018-01-05T17:29:45.374Z,3.93
2018-01-05T17:32:12.181Z,3.60
2018-01-05T17:34:38.899Z,3.50
2018-01-05T17:37:05.626Z,3.83
2018-01-05T17:39:32.411Z,3.30
2018-01-05T17:41:59.127Z,3.20
2018-01-05T17:44:25.894Z,3.77
2018-01-05T17:46:52.621Z,2.87
2018-01-05T17:49:19.351Z,3.40
2018-01-05T17:51:46.078Z,8.80
2018-01-05T17:54:12.836Z,50.70
2018-01-05T17:56:39.561Z,6.23
2018-01-05T17:59:06.292Z,4.40
2018-01-05T18:01:33.009Z,3.50
2018-01-05T18:03:59.750Z,7.93
2018-01-05T18:06:26.725Z,4.33
2018-01-05T18:08:53.696Z,14.73
2018-01-05T18:11:20.446Z,17.13
2018-01-05T18:13:47.248Z,4.97
2018-01-05T18:16:13.976Z,4.50
2018-01-05T18:18:40.706Z,5.10
2018-01-05T18:21:07.454Z,5.00
2018-01-05T18:23:34.213Z,4.70
2018-01-05T18:26:00.959Z,4.43
2018-01-05T18:28:27.691Z,4.00
2018-01-05T18:30:54.435Z,4.53
2018-01-05T18:33:21.180Z,4.47
2018-01-05T18:35:47.930Z,5.27
2018-01-05T18:38:14.667Z,4.83
2018-01-05T18:40:41.619Z,5.40
2018-01-05T18:43:08.358Z,5.73
2018-01-05T18:45:35.211Z,5.60
2018-01-05T18:48:02.057Z,6.00
2018-01-05T18:50:28.807Z,5.80
2018-01-05T18:52:55.525Z,5.97
2018-01-05T18:55:22.363Z,6.23
2018-01-05T18:57:49.075Z,4.73
2018-01-05T19:00:15.850Z,5.23
2018-01-05T19:02:42.578Z,6.57
2018-01-05T19:05:09.301Z,6.30
2018-01-05T19:07:36.022Z,5.17
2018-01-05T19:10:02.750Z,25.13
2018-01-05T19:12:29.506Z,9.43
2018-01-05T19:14:56.232Z,8.27
2018-01-05T19:17:22.975Z,6.90
2018-01-05T19:19:49.700Z,7.10
2018-01-05T19:22:16.453Z,7.17
2018-01-05T19:24:43.195Z,7.70
2018-01-05T19:27:09.900Z,9.70
2018-01-05T19:29:36.623Z,9.27
2018-01-05T19:32:03.349Z,8.90
2018-01-05T19:34:30.078Z,9.80
2018-01-05T19:36:56.786Z,9.33
2018-01-05T19:39:23.514Z,8.00
2018-01-05T19:41:50.331Z,12.30
2018-01-05T19:44:17.052Z,12.00
2018-01-05T19:46:43.792Z,13.83
2018-01-05T19:49:10.657Z,13.10
2018-01-05T19:51:37.406Z,11.17
2018-01-05T19:54:04.151Z,11.20
2018-01-05T19:56:30.903Z,16.43
2018-01-05T19:58:57.630Z,14.17
2018-01-05T20:01:24.457Z,17.90
2018-01-05T20:03:51.190Z,17.80
2018-01-05T20:06:17.966Z,19.13
2018-01-05T20:08:44.712Z,19.50
2018-01-05T20:11:11.470Z,15.83
2018-01-05T20:13:38.264Z,17.03
2018-01-05T20:16:05.012Z,16.43
2018-01-05T20:18:31.725Z,17.70
2018-01-05T20:20:58.448Z,17.93
2018-01-05T20:23:25.197Z,14.93
2018-01-05T20:25:51.925Z,17.37
2018-01-05T20:28:18.717Z,15.77
2018-01-05T20:30:45.472Z,15.13
2018-01-05T20:33:12.288Z,15.47
2018-01-05T20:35:39.063Z,12.43
2018-01-05T20:38:05.830Z,13.43
2018-01-05T20:40:32.602Z,13.00
2018-01-05T20:42:59.442Z,14.37
2018-01-05T20:45:26.289Z,18.80
2018-01-05T20:47:53.015Z,15.60
2018-01-05T20:50:19.753Z,22.57
2018-01-05T20:52:46.606Z,13.13
2018-01-05T20:55:13.367Z,13.50
2018-01-05T20:57:40.093Z,13.63
2018-01-05T21:00:06.816Z,11.93
2018-01-05T21:02:33.552Z,13.17
2018-01-05T21:05:00.307Z,12.87
2018-01-05T21:07:27.075Z,11.13
2018-01-05T21:09:53.848Z,11.03
2018-01-05T21:12:20.573Z,13.30
2018-01-05T21:14:47.303Z,12.50
2018-01-05T21:17:14.112Z,11.83
2018-01-05T21:19:40.873Z,12.00
2018-01-05T21:22:07.606Z,14.30
2018-01-05T21:24:34.326Z,13.37
2018-01-05T21:27:01.173Z,12.47
2018-01-05T21:29:27.907Z,10.60
2018-01-05T21:31:54.752Z,13.60
2018-01-05T21:34:21.557Z,13.37
2018-01-05T21:36:48.297Z,13.47
2018-01-05T21:39:15.046Z,13.60
2018-01-05T21:41:41.798Z,17.20
2018-01-05T21:44:08.530Z,19.90
2018-01-05T21:46:35.281Z,22.10
2018-01-05T21:49:02.146Z,21.60
2018-01-05T21:51:28.873Z,15.43
2018-01-05T21:53:55.599Z,16.83
2018-01-05T21:56:22.331Z,16.20
2018-01-05T21:58:49.098Z,16.10
2018-01-05T22:01:15.946Z,15.67
2018-01-05T22:03:42.695Z,16.47
2018-01-05T22:06:09.436Z,17.43
2018-01-05T22:08:36.172Z,20.37
2018-01-05T22:11:02.910Z,18.60
2018-01-05T22:13:29.628Z,18.40
2018-01-05T22:15:56.356Z,20.60
2018-01-05T22:18:23.113Z,19.93
2018-01-05T22:20:49.876Z,22.50
2018-01-05T22:23:16.602Z,20.47
2018-01-05T22:25:43.329Z,19.10
2018-01-05T22:28:10.161Z,21.23
2018-01-05T22:30:36.906Z,22.57
2018-01-05T22:33:03.635Z,16.30
2018-01-05T22:35:30.375Z,16.33
2018-01-05T22:37:57.127Z,16.07
2018-01-05T22:40:23.887Z,16.33
2018-01-05T22:42:50.630Z,15.67
2018-01-05T22:45:17.352Z,15.03
2018-01-05T22:47:44.096Z,15.60
2018-01-05T22:50:10.847Z,14.90
2018-01-05T22:52:37.582Z,13.70
2018-01-05T22:55:04.316Z,13.50
2018-01-05T22:57:31.048Z,12.63
2018-01-05T22:59:57.782Z,13.03
2018-01-05T23:02:24.507Z,12.77
2018-01-05T23:04:51.258Z,14.70
2018-01-05T23:07:17.983Z,12.90
2018-01-05T23:09:44.716Z,13.37
2018-01-05T23:12:11.461Z,12.30
2018-01-05T23:14:38.183Z,11.70
2018-01-05T23:17:04.900Z,13.30
2018-01-05T23:19:31.640Z,10.37
2018-01-05T23:21:58.363Z,12.97
2018-01-05T23:24:25.113Z,9.90
2018-01-05T23:26:51.837Z,11.20
2018-01-05T23:29:18.548Z,10.90
2018-01-05T23:31:45.262Z,9.73
2018-01-05T23:34:12.003Z,9.90
2018-01-05T23:36:38.746Z,11.57
2018-01-05T23:39:05.457Z,12.40
2018-01-05T23:41:32.200Z,11.00
2018-01-05T23:43:58.912Z,12.90
2018-01-05T23:46:25.650Z,10.67
2018-01-05T23:48:52.388Z,10.73
2018-01-05T23:51:19.142Z,11.27
2018-01-05T23:53:45.882Z,9.87
2018-01-05T23:56:12.611Z,12.53
2018-01-05T23:58:39.339Z,11.70
